Heitorai, Brazil
Current Conditions -  °F | °C
As of 6:00 AM on Saturday 29 Nov 2014 (Local Time) from SBAN Reporting Station
Broken Clouds Broken Clouds  
Wind Chill: 64°   Ceiling: 9000
Heat Index: 64°   Visibility: 6mi
Dew Point: 63°   Wind: 5mph
Humidity: 94%   Direction: 30°NNE
Pressure: 30.06"   Gusts: NA
Location:  15.72°S, 49.83°W
Report Text: SBAN 290800Z 03004KT 9999 FEW030 BKN090 18/17 Q1018
Loading
Personal Weather Stations






























Interactive Weather Map New forecast layout! Learn more

10-Day Weather Forecast

Advertisements
Track Severe Weather on mobile